sensor_id;sensor_type;location;lat;lon;timestamp;temperature;humidity
3067;DHT22;1544;48.834;9.194;2022-12-29T00:01:00;11.10;33.10
3067;DHT22;1544;48.834;9.194;2022-12-29T00:03:36;11.10;33.10
3067;DHT22;1544;48.834;9.194;2022-12-29T00:06:11;11.20;33.10
3067;DHT22;1544;48.834;9.194;2022-12-29T00:08:46;11.20;33.10
3067;DHT22;1544;48.834;9.194;2022-12-29T00:11:24;11.20;32.90
3067;DHT22;1544;48.834;9.194;2022-12-29T00:13:59;11.30;33.00
3067;DHT22;1544;48.834;9.194;2022-12-29T00:16:59;11.30;32.90
3067;DHT22;1544;48.834;9.194;2022-12-29T00:19:35;11.30;32.80
3067;DHT22;1544;48.834;9.194;2022-12-29T00:22:28;11.30;32.80
3067;DHT22;1544;48.834;9.194;2022-12-29T00:25:22;11.40;32.70
3067;DHT22;1544;48.834;9.194;2022-12-29T00:28:15;11.40;32.90
3067;DHT22;1544;48.834;9.194;2022-12-29T00:31:11;11.40;32.80
3067;DHT22;1544;48.834;9.194;2022-12-29T00:34:10;11.40;32.80
3067;DHT22;1544;48.834;9.194;2022-12-29T00:37:04;11.40;32.70
3067;DHT22;1544;48.834;9.194;2022-12-29T00:39:41;11.40;32.70
3067;DHT22;1544;48.834;9.194;2022-12-29T00:42:34;11.50;32.70
3067;DHT22;1544;48.834;9.194;2022-12-29T00:45:27;11.50;32.60
3067;DHT22;1544;48.834;9.194;2022-12-29T00:48:02;11.60;32.60
3067;DHT22;1544;48.834;9.194;2022-12-29T00:50:38;11.60;32.60
3067;DHT22;1544;48.834;9.194;2022-12-29T00:53:13;11.60;32.50
3067;DHT22;1544;48.834;9.194;2022-12-29T00:55:48;11.60;32.60
3067;DHT22;1544;48.834;9.194;2022-12-29T00:58:23;11.60;32.50
3067;DHT22;1544;48.834;9.194;2022-12-29T01:01:08;11.70;32.60
3067;DHT22;1544;48.834;9.194;2022-12-29T01:03:43;11.80;32.60
3067;DHT22;1544;48.834;9.194;2022-12-29T01:06:19;11.80;32.50
3067;DHT22;1544;48.834;9.194;2022-12-29T01:08:54;11.80;32.40
3067;DHT22;1544;48.834;9.194;2022-12-29T01:11:48;11.80;32.50
3067;DHT22;1544;48.834;9.194;2022-12-29T01:14:24;11.80;32.40
3067;DHT22;1544;48.834;9.194;2022-12-29T01:16:59;11.90;32.60
3067;DHT22;1544;48.834;9.194;2022-12-29T01:19:34;11.90;32.40
3067;DHT22;1544;48.834;9.194;2022-12-29T01:22:09;11.90;32.40
3067;DHT22;1544;48.834;9.194;2022-12-29T01:24:44;11.90;32.40
3067;DHT22;1544;48.834;9.194;2022-12-29T01:27:20;11.90;32.30
3067;DHT22;1544;48.834;9.194;2022-12-29T01:29:55;11.90;32.40
3067;DHT22;1544;48.834;9.194;2022-12-29T01:32:30;12.00;32.40
3067;DHT22;1544;48.834;9.194;2022-12-29T01:35:06;12.00;32.40
3067;DHT22;1544;48.834;9.194;2022-12-29T01:37:42;12.10;32.50
3067;DHT22;1544;48.834;9.194;2022-12-29T01:40:17;12.10;32.40
3067;DHT22;1544;48.834;9.194;2022-12-29T01:42:52;12.10;32.50
3067;DHT22;1544;48.834;9.194;2022-12-29T01:45:27;12.10;32.50
3067;DHT22;1544;48.834;9.194;2022-12-29T01:48:04;12.10;32.60
3067;DHT22;1544;48.834;9.194;2022-12-29T01:50:43;12.10;32.60
3067;DHT22;1544;48.834;9.194;2022-12-29T01:53:25;12.10;32.60
3067;DHT22;1544;48.834;9.194;2022-12-29T01:56:07;12.10;32.50
3067;DHT22;1544;48.834;9.194;2022-12-29T01:58:47;12.10;32.50
3067;DHT22;1544;48.834;9.194;2022-12-29T02:01:23;12.10;32.50
3067;DHT22;1544;48.834;9.194;2022-12-29T02:03:59;12.10;32.60
3067;DHT22;1544;48.834;9.194;2022-12-29T02:06:48;12.10;32.60
3067;DHT22;1544;48.834;9.194;2022-12-29T02:09:26;12.10;32.60
3067;DHT22;1544;48.834;9.194;2022-12-29T02:12:01;12.10;32.60
3067;DHT22;1544;48.834;9.194;2022-12-29T02:14:36;12.00;32.50
3067;DHT22;1544;48.834;9.194;2022-12-29T02:20:26;12.00;32.60
3067;DHT22;1544;48.834;9.194;2022-12-29T02:30:07;12.00;32.90
3067;DHT22;1544;48.834;9.194;2022-12-29T02:42:19;12.00;32.70
3067;DHT22;1544;48.834;9.194;2022-12-29T02:45:36;12.00;32.60
3067;DHT22;1544;48.834;9.194;2022-12-29T02:48:46;12.00;32.50
3067;DHT22;1544;48.834;9.194;2022-12-29T02:51:41;12.00;32.50
3067;DHT22;1544;48.834;9.194;2022-12-29T02:54:21;12.00;32.50
3067;DHT22;1544;48.834;9.194;2022-12-29T02:57:34;12.00;32.40
3067;DHT22;1544;48.834;9.194;2022-12-29T03:00:15;12.10;32.50
3067;DHT22;1544;48.834;9.194;2022-12-29T03:03:17;12.10;32.40
3067;DHT22;1544;48.834;9.194;2022-12-29T03:06:30;14.10;34.10
3067;DHT22;1544;48.834;9.194;2022-12-29T03:09:19;12.20;32.50
3067;DHT22;1544;48.834;9.194;2022-12-29T03:15:02;12.20;32.40
3067;DHT22;1544;48.834;9.194;2022-12-29T03:18:04;12.20;32.40
3067;DHT22;1544;48.834;9.194;2022-12-29T03:20:55;12.30;32.50
3067;DHT22;1544;48.834;9.194;2022-12-29T03:23:36;11.00;31.30
3067;DHT22;1544;48.834;9.194;2022-12-29T03:26:16;12.30;32.40
3067;DHT22;1544;48.834;9.194;2022-12-29T03:28:53;12.40;32.50
3067;DHT22;1544;48.834;9.194;2022-12-29T03:31:32;12.50;32.50
3067;DHT22;1544;48.834;9.194;2022-12-29T03:34:08;12.50;32.40
3067;DHT22;1544;48.834;9.194;2022-12-29T03:37:11;12.50;32.40
3067;DHT22;1544;48.834;9.194;2022-12-29T03:39:49;12.60;32.40
3067;DHT22;1544;48.834;9.194;2022-12-29T03:42:26;12.60;32.30
3067;DHT22;1544;48.834;9.194;2022-12-29T03:45:04;12.60;32.30
3067;DHT22;1544;48.834;9.194;2022-12-29T03:47:40;12.60;32.30
3067;DHT22;1544;48.834;9.194;2022-12-29T03:50:15;12.70;32.40
3067;DHT22;1544;48.834;9.194;2022-12-29T03:52:52;12.70;32.40
3067;DHT22;1544;48.834;9.194;2022-12-29T03:55:27;12.70;32.50
3067;DHT22;1544;48.834;9.194;2022-12-29T03:58:01;12.70;32.40
3067;DHT22;1544;48.834;9.194;2022-12-29T04:00:52;12.60;32.40
3067;DHT22;1544;48.834;9.194;2022-12-29T04:03:27;12.60;32.50
3067;DHT22;1544;48.834;9.194;2022-12-29T04:06:03;12.60;32.50
3067;DHT22;1544;48.834;9.194;2022-12-29T04:08:45;12.60;32.60
3067;DHT22;1544;48.834;9.194;2022-12-29T04:11:21;12.50;32.50
3067;DHT22;1544;48.834;9.194;2022-12-29T04:13:59;12.50;32.60
3067;DHT22;1544;48.834;9.194;2022-12-29T04:16:36;12.40;32.60
3067;DHT22;1544;48.834;9.194;2022-12-29T04:19:14;12.40;32.70
3067;DHT22;1544;48.834;9.194;2022-12-29T04:21:49;12.30;32.60
3067;DHT22;1544;48.834;9.194;2022-12-29T04:24:25;12.30;32.80
3067;DHT22;1544;48.834;9.194;2022-12-29T04:27:00;12.30;32.70
3067;DHT22;1544;48.834;9.194;2022-12-29T04:29:53;12.30;32.80
3067;DHT22;1544;48.834;9.194;2022-12-29T04:32:48;12.40;33.10
3067;DHT22;1544;48.834;9.194;2022-12-29T04:35:23;12.30;33.00
3067;DHT22;1544;48.834;9.194;2022-12-29T04:37:58;12.40;33.20
3067;DHT22;1544;48.834;9.194;2022-12-29T04:40:33;12.50;33.20
3067;DHT22;1544;48.834;9.194;2022-12-29T04:43:09;12.50;33.20
3067;DHT22;1544;48.834;9.194;2022-12-29T04:46:03;12.50;33.30
3067;DHT22;1544;48.834;9.194;2022-12-29T04:48:56;12.50;33.40
3067;DHT22;1544;48.834;9.194;2022-12-29T04:51:46;12.50;33.40
3067;DHT22;1544;48.834;9.194;2022-12-29T04:54:23;12.50;33.40
3067;DHT22;1544;48.834;9.194;2022-12-29T04:57:06;12.50;33.50
3067;DHT22;1544;48.834;9.194;2022-12-29T04:59:42;12.50;33.60
3067;DHT22;1544;48.834;9.194;2022-12-29T05:02:17;12.40;33.70
3067;DHT22;1544;48.834;9.194;2022-12-29T05:04:55;12.40;33.70
3067;DHT22;1544;48.834;9.194;2022-12-29T05:07:31;12.40;33.70
3067;DHT22;1544;48.834;9.194;2022-12-29T05:10:08;12.40;33.80
3067;DHT22;1544;48.834;9.194;2022-12-29T05:12:43;12.40;33.90
3067;DHT22;1544;48.834;9.194;2022-12-29T05:15:21;12.40;33.90
3067;DHT22;1544;48.834;9.194;2022-12-29T05:17:57;12.40;34.00
3067;DHT22;1544;48.834;9.194;2022-12-29T05:20:33;12.30;34.10
3067;DHT22;1544;48.834;9.194;2022-12-29T05:23:09;12.30;34.20
3067;DHT22;1544;48.834;9.194;2022-12-29T05:25:45;12.40;34.30
3067;DHT22;1544;48.834;9.194;2022-12-29T05:28:25;12.30;34.20
3067;DHT22;1544;48.834;9.194;2022-12-29T05:31:12;12.30;34.20
3067;DHT22;1544;48.834;9.194;2022-12-29T05:33:50;12.40;34.70
3067;DHT22;1544;48.834;9.194;2022-12-29T05:36:25;12.40;34.30
3067;DHT22;1544;48.834;9.194;2022-12-29T05:39:05;12.40;34.40
3067;DHT22;1544;48.834;9.194;2022-12-29T05:41:42;12.30;34.40
3067;DHT22;1544;48.834;9.194;2022-12-29T05:44:41;12.40;34.50
3067;DHT22;1544;48.834;9.194;2022-12-29T05:47:39;12.30;34.60
3067;DHT22;1544;48.834;9.194;2022-12-29T05:50:32;12.30;34.50
3067;DHT22;1544;48.834;9.194;2022-12-29T05:53:19;12.30;34.40
3067;DHT22;1544;48.834;9.194;2022-12-29T05:55:54;12.40;34.50
3067;DHT22;1544;48.834;9.194;2022-12-29T05:58:29;12.40;34.50
3067;DHT22;1544;48.834;9.194;2022-12-29T06:01:04;12.50;34.40
3067;DHT22;1544;48.834;9.194;2022-12-29T06:03:39;12.50;34.50
3067;DHT22;1544;48.834;9.194;2022-12-29T06:06:21;12.60;34.40
3067;DHT22;1544;48.834;9.194;2022-12-29T06:08:56;12.60;34.20
3067;DHT22;1544;48.834;9.194;2022-12-29T06:11:31;12.70;34.10
3067;DHT22;1544;48.834;9.194;2022-12-29T06:14:07;12.60;33.90
3067;DHT22;1544;48.834;9.194;2022-12-29T06:16:42;12.60;34.00
3067;DHT22;1544;48.834;9.194;2022-12-29T06:19:20;12.60;34.00
3067;DHT22;1544;48.834;9.194;2022-12-29T06:21:55;12.60;34.10
3067;DHT22;1544;48.834;9.194;2022-12-29T06:24:30;12.60;34.00
3067;DHT22;1544;48.834;9.194;2022-12-29T06:27:05;12.60;33.90
3067;DHT22;1544;48.834;9.194;2022-12-29T06:29:41;12.50;34.00
3067;DHT22;1544;48.834;9.194;2022-12-29T06:32:17;12.50;34.00
3067;DHT22;1544;48.834;9.194;2022-12-29T06:34:57;12.50;34.10
3067;DHT22;1544;48.834;9.194;2022-12-29T06:37:32;12.50;34.10
3067;DHT22;1544;48.834;9.194;2022-12-29T06:40:08;12.50;34.00
3067;DHT22;1544;48.834;9.194;2022-12-29T06:43:04;11.70;33.70
3067;DHT22;1544;48.834;9.194;2022-12-29T06:46:05;12.50;34.00
3067;DHT22;1544;48.834;9.194;2022-12-29T06:48:41;12.50;34.10
3067;DHT22;1544;48.834;9.194;2022-12-29T06:51:16;12.50;34.00
3067;DHT22;1544;48.834;9.194;2022-12-29T06:53:51;12.50;33.90
3067;DHT22;1544;48.834;9.194;2022-12-29T06:56:26;12.50;34.00
3067;DHT22;1544;48.834;9.194;2022-12-29T06:59:01;12.60;34.00
3067;DHT22;1544;48.834;9.194;2022-12-29T07:01:36;12.50;33.70
3067;DHT22;1544;48.834;9.194;2022-12-29T07:04:11;12.50;33.70
3067;DHT22;1544;48.834;9.194;2022-12-29T07:06:46;12.50;33.50
3067;DHT22;1544;48.834;9.194;2022-12-29T07:09:21;12.50;33.50
3067;DHT22;1544;48.834;9.194;2022-12-29T07:11:56;12.50;33.50
3067;DHT22;1544;48.834;9.194;2022-12-29T07:14:31;12.40;33.40
3067;DHT22;1544;48.834;9.194;2022-12-29T07:17:16;12.40;33.40
3067;DHT22;1544;48.834;9.194;2022-12-29T07:19:51;12.40;33.40
3067;DHT22;1544;48.834;9.194;2022-12-29T07:22:25;12.40;33.40
3067;DHT22;1544;48.834;9.194;2022-12-29T07:25:00;12.30;33.20
3067;DHT22;1544;48.834;9.194;2022-12-29T07:27:37;12.30;33.20
3067;DHT22;1544;48.834;9.194;2022-12-29T07:30:12;12.20;33.20
3067;DHT22;1544;48.834;9.194;2022-12-29T07:32:47;12.20;33.10
3067;DHT22;1544;48.834;9.194;2022-12-29T07:35:22;12.30;33.20
3067;DHT22;1544;48.834;9.194;2022-12-29T07:37:57;12.30;33.30
3067;DHT22;1544;48.834;9.194;2022-12-29T07:40:32;12.30;33.30
3067;DHT22;1544;48.834;9.194;2022-12-29T07:43:07;12.30;33.30
3067;DHT22;1544;48.834;9.194;2022-12-29T07:45:48;12.30;33.30
3067;DHT22;1544;48.834;9.194;2022-12-29T07:48:25;12.30;33.20
3067;DHT22;1544;48.834;9.194;2022-12-29T07:51:00;12.30;33.20
3067;DHT22;1544;48.834;9.194;2022-12-29T07:53:35;12.20;33.10
3067;DHT22;1544;48.834;9.194;2022-12-29T07:56:10;12.10;33.20
3067;DHT22;1544;48.834;9.194;2022-12-29T07:58:45;12.20;33.30
3067;DHT22;1544;48.834;9.194;2022-12-29T08:01:20;12.20;33.30
3067;DHT22;1544;48.834;9.194;2022-12-29T08:03:56;12.20;33.30
3067;DHT22;1544;48.834;9.194;2022-12-29T08:06:31;12.20;33.40
3067;DHT22;1544;48.834;9.194;2022-12-29T08:09:08;12.30;33.50
3067;DHT22;1544;48.834;9.194;2022-12-29T08:11:53;12.30;33.40
3067;DHT22;1544;48.834;9.194;2022-12-29T08:14:29;12.40;33.40
3067;DHT22;1544;48.834;9.194;2022-12-29T08:17:04;12.50;33.60
3067;DHT22;1544;48.834;9.194;2022-12-29T08:19:39;12.50;33.60
3067;DHT22;1544;48.834;9.194;2022-12-29T08:22:15;12.60;33.50
3067;DHT22;1544;48.834;9.194;2022-12-29T08:24:50;12.70;33.50
3067;DHT22;1544;48.834;9.194;2022-12-29T08:27:25;12.70;33.40
3067;DHT22;1544;48.834;9.194;2022-12-29T08:30:01;12.80;33.30
3067;DHT22;1544;48.834;9.194;2022-12-29T08:32:36;12.80;33.20
3067;DHT22;1544;48.834;9.194;2022-12-29T08:35:11;12.80;33.30
3067;DHT22;1544;48.834;9.194;2022-12-29T08:37:47;12.90;33.30
3067;DHT22;1544;48.834;9.194;2022-12-29T08:40:22;12.80;33.00
3067;DHT22;1544;48.834;9.194;2022-12-29T08:42:57;12.80;33.00
3067;DHT22;1544;48.834;9.194;2022-12-29T08:45:32;12.80;33.10
3067;DHT22;1544;48.834;9.194;2022-12-29T08:48:07;12.80;33.20
3067;DHT22;1544;48.834;9.194;2022-12-29T08:50:43;12.80;33.20
3067;DHT22;1544;48.834;9.194;2022-12-29T08:53:19;12.80;33.30
3067;DHT22;1544;48.834;9.194;2022-12-29T08:55:57;12.80;33.20
3067;DHT22;1544;48.834;9.194;2022-12-29T08:58:46;12.70;33.30
3067;DHT22;1544;48.834;9.194;2022-12-29T09:01:22;12.80;33.30
3067;DHT22;1544;48.834;9.194;2022-12-29T09:03:57;12.80;33.30
3067;DHT22;1544;48.834;9.194;2022-12-29T09:06:51;12.80;33.30
3067;DHT22;1544;48.834;9.194;2022-12-29T09:09:26;12.90;33.40
3067;DHT22;1544;48.834;9.194;2022-12-29T09:12:01;12.80;33.30
3067;DHT22;1544;48.834;9.194;2022-12-29T09:14:36;13.00;33.50
3067;DHT22;1544;48.834;9.194;2022-12-29T09:17:11;13.10;33.40
3067;DHT22;1544;48.834;9.194;2022-12-29T09:20:04;13.10;33.20
3067;DHT22;1544;48.834;9.194;2022-12-29T09:22:40;13.20;33.20
3067;DHT22;1544;48.834;9.194;2022-12-29T09:25:16;13.30;33.20
3067;DHT22;1544;48.834;9.194;2022-12-29T09:27:52;13.50;33.20
3067;DHT22;1544;48.834;9.194;2022-12-29T09:30:27;13.50;33.00
3067;DHT22;1544;48.834;9.194;2022-12-29T09:33:02;13.60;32.90
3067;DHT22;1544;48.834;9.194;2022-12-29T09:35:41;13.70;32.80
3067;DHT22;1544;48.834;9.194;2022-12-29T09:38:17;13.80;32.80
3067;DHT22;1544;48.834;9.194;2022-12-29T09:40:56;13.80;32.60
3067;DHT22;1544;48.834;9.194;2022-12-29T09:43:48;13.80;32.60
3067;DHT22;1544;48.834;9.194;2022-12-29T09:46:46;14.00;32.70
3067;DHT22;1544;48.834;9.194;2022-12-29T09:52:39;14.30;32.50
3067;DHT22;1544;48.834;9.194;2022-12-29T09:55:22;14.30;32.20
3067;DHT22;1544;48.834;9.194;2022-12-29T09:58:03;14.50;32.40
3067;DHT22;1544;48.834;9.194;2022-12-29T10:00:56;14.60;32.40
3067;DHT22;1544;48.834;9.194;2022-12-29T10:24:34;14.70;31.70
3067;DHT22;1544;48.834;9.194;2022-12-29T10:27:13;14.80;31.90
3067;DHT22;1544;48.834;9.194;2022-12-29T10:29:55;14.80;31.90
3067;DHT22;1544;48.834;9.194;2022-12-29T10:35:34;14.90;31.90
3067;DHT22;1544;48.834;9.194;2022-12-29T10:41:25;15.00;31.90
3067;DHT22;1544;48.834;9.194;2022-12-29T10:44:02;15.00;31.70
3067;DHT22;1544;48.834;9.194;2022-12-29T10:46:38;15.20;31.70
3067;DHT22;1544;48.834;9.194;2022-12-29T10:49:17;15.20;31.70
3067;DHT22;1544;48.834;9.194;2022-12-29T10:51:59;15.10;31.60
3067;DHT22;1544;48.834;9.194;2022-12-29T10:54:46;15.10;31.80
3067;DHT22;1544;48.834;9.194;2022-12-29T10:57:35;15.20;31.80
3067;DHT22;1544;48.834;9.194;2022-12-29T11:00:19;15.40;31.70
3067;DHT22;1544;48.834;9.194;2022-12-29T11:06:25;15.60;31.50
3067;DHT22;1544;48.834;9.194;2022-12-29T11:11:44;15.90;31.40
3067;DHT22;1544;48.834;9.194;2022-12-29T11:14:31;16.00;31.20
3067;DHT22;1544;48.834;9.194;2022-12-29T11:17:09;16.00;30.90
3067;DHT22;1544;48.834;9.194;2022-12-29T11:19:49;15.90;31.00
3067;DHT22;1544;48.834;9.194;2022-12-29T11:22:27;16.00;30.70
3067;DHT22;1544;48.834;9.194;2022-12-29T11:25:12;16.00;30.70
3067;DHT22;1544;48.834;9.194;2022-12-29T11:30:38;15.90;30.70
3067;DHT22;1544;48.834;9.194;2022-12-29T11:33:13;16.30;31.30
3067;DHT22;1544;48.834;9.194;2022-12-29T11:35:49;15.90;30.80
3067;DHT22;1544;48.834;9.194;2022-12-29T11:38:39;15.90;30.80
3067;DHT22;1544;48.834;9.194;2022-12-29T11:41:21;15.90;30.40
3067;DHT22;1544;48.834;9.194;2022-12-29T11:43:59;15.80;30.70
3067;DHT22;1544;48.834;9.194;2022-12-29T11:46:37;15.70;30.20
3067;DHT22;1544;48.834;9.194;2022-12-29T11:49:22;15.60;30.20
3067;DHT22;1544;48.834;9.194;2022-12-29T11:51:59;15.50;30.20
3067;DHT22;1544;48.834;9.194;2022-12-29T11:54:36;15.40;30.00
3067;DHT22;1544;48.834;9.194;2022-12-29T11:57:16;15.40;30.00
3067;DHT22;1544;48.834;9.194;2022-12-29T11:59:54;15.30;30.60
3067;DHT22;1544;48.834;9.194;2022-12-29T12:02:42;15.10;31.40
3067;DHT22;1544;48.834;9.194;2022-12-29T12:05:24;15.10;33.40
3067;DHT22;1544;48.834;9.194;2022-12-29T12:11:22;14.90;35.30
3067;DHT22;1544;48.834;9.194;2022-12-29T12:14:21;14.80;35.90
3067;DHT22;1544;48.834;9.194;2022-12-29T12:20:53;14.60;36.10
3067;DHT22;1544;48.834;9.194;2022-12-29T12:24:05;14.50;36.00
3067;DHT22;1544;48.834;9.194;2022-12-29T12:27:12;14.40;36.20
3067;DHT22;1544;48.834;9.194;2022-12-29T12:29:59;14.50;36.00
3067;DHT22;1544;48.834;9.194;2022-12-29T12:33:00;14.60;36.20
3067;DHT22;1544;48.834;9.194;2022-12-29T12:42:33;14.90;35.90
3067;DHT22;1544;48.834;9.194;2022-12-29T12:48:23;15.20;36.00
3067;DHT22;1544;48.834;9.194;2022-12-29T12:58:05;15.60;34.50
3067;DHT22;1544;48.834;9.194;2022-12-29T13:04:15;15.80;34.50
3067;DHT22;1544;48.834;9.194;2022-12-29T13:22:13;16.50;34.40
3067;DHT22;1544;48.834;9.194;2022-12-29T13:25:18;16.60;34.20
3067;DHT22;1544;48.834;9.194;2022-12-29T13:28:25;16.60;33.50
3067;DHT22;1544;48.834;9.194;2022-12-29T13:31:17;16.60;34.20
3067;DHT22;1544;48.834;9.194;2022-12-29T13:34:35;16.60;34.20
3067;DHT22;1544;48.834;9.194;2022-12-29T13:37:22;16.50;33.90
3067;DHT22;1544;48.834;9.194;2022-12-29T13:40:13;16.40;33.70
3067;DHT22;1544;48.834;9.194;2022-12-29T13:42:52;16.20;33.70
3067;DHT22;1544;48.834;9.194;2022-12-29T13:45:30;16.00;33.80
3067;DHT22;1544;48.834;9.194;2022-12-29T13:48:08;15.80;33.90
3067;DHT22;1544;48.834;9.194;2022-12-29T13:50:51;15.70;34.00
3067;DHT22;1544;48.834;9.194;2022-12-29T13:56:57;15.50;34.40
3067;DHT22;1544;48.834;9.194;2022-12-29T13:59:59;15.30;34.40
3067;DHT22;1544;48.834;9.194;2022-12-29T14:08:04;15.20;34.80
3067;DHT22;1544;48.834;9.194;2022-12-29T14:10:48;15.20;34.70
3067;DHT22;1544;48.834;9.194;2022-12-29T14:13:26;15.20;34.60
3067;DHT22;1544;48.834;9.194;2022-12-29T14:16:01;15.20;34.80
3067;DHT22;1544;48.834;9.194;2022-12-29T14:18:43;15.10;34.80
3067;DHT22;1544;48.834;9.194;2022-12-29T14:21:24;15.00;34.70
3067;DHT22;1544;48.834;9.194;2022-12-29T14:24:43;15.00;35.10
3067;DHT22;1544;48.834;9.194;2022-12-29T14:29:55;15.10;35.40
3067;DHT22;1544;48.834;9.194;2022-12-29T14:35:38;15.00;34.80
3067;DHT22;1544;48.834;9.194;2022-12-29T14:38:23;15.00;35.30
3067;DHT22;1544;48.834;9.194;2022-12-29T14:41:24;15.00;35.10
3067;DHT22;1544;48.834;9.194;2022-12-29T14:44:18;15.00;35.20
3067;DHT22;1544;48.834;9.194;2022-12-29T14:46:55;15.00;35.20
3067;DHT22;1544;48.834;9.194;2022-12-29T14:49:40;14.90;35.20
3067;DHT22;1544;48.834;9.194;2022-12-29T14:52:23;14.70;35.20
3067;DHT22;1544;48.834;9.194;2022-12-29T14:55:30;14.70;35.50
3067;DHT22;1544;48.834;9.194;2022-12-29T14:58:17;14.60;35.70
3067;DHT22;1544;48.834;9.194;2022-12-29T15:00:56;14.60;35.70
3067;DHT22;1544;48.834;9.194;2022-12-29T15:03:42;16.00;37.00
3067;DHT22;1544;48.834;9.194;2022-12-29T15:06:28;14.50;35.90
3067;DHT22;1544;48.834;9.194;2022-12-29T15:09:24;14.50;35.70
3067;DHT22;1544;48.834;9.194;2022-12-29T15:12:20;14.30;35.70
3067;DHT22;1544;48.834;9.194;2022-12-29T15:15:02;14.30;35.80
3067;DHT22;1544;48.834;9.194;2022-12-29T15:17:52;14.30;35.80
3067;DHT22;1544;48.834;9.194;2022-12-29T15:20:30;14.20;35.80
3067;DHT22;1544;48.834;9.194;2022-12-29T15:23:13;14.20;36.00
3067;DHT22;1544;48.834;9.194;2022-12-29T15:25:59;14.20;36.10
3067;DHT22;1544;48.834;9.194;2022-12-29T15:28:45;14.10;36.20
3067;DHT22;1544;48.834;9.194;2022-12-29T15:31:23;14.10;35.80
3067;DHT22;1544;48.834;9.194;2022-12-29T15:34:11;14.10;36.40
3067;DHT22;1544;48.834;9.194;2022-12-29T15:36:50;14.10;36.20
3067;DHT22;1544;48.834;9.194;2022-12-29T15:39:30;14.00;36.10
3067;DHT22;1544;48.834;9.194;2022-12-29T15:42:29;14.00;36.20
3067;DHT22;1544;48.834;9.194;2022-12-29T15:45:11;14.00;36.10
3067;DHT22;1544;48.834;9.194;2022-12-29T15:47:48;13.90;37.50
3067;DHT22;1544;48.834;9.194;2022-12-29T15:50:32;13.70;47.50
3067;DHT22;1544;48.834;9.194;2022-12-29T15:53:34;13.00;59.40
3067;DHT22;1544;48.834;9.194;2022-12-29T15:56:10;12.50;71.30
3067;DHT22;1544;48.834;9.194;2022-12-29T15:58:48;12.00;74.40
3067;DHT22;1544;48.834;9.194;2022-12-29T16:01:36;11.70;80.20
3067;DHT22;1544;48.834;9.194;2022-12-29T16:04:11;11.40;83.10
3067;DHT22;1544;48.834;9.194;2022-12-29T16:07:20;11.20;84.50
3067;DHT22;1544;48.834;9.194;2022-12-29T16:10:00;11.10;86.40
3067;DHT22;1544;48.834;9.194;2022-12-29T16:12:36;10.90;87.40
3067;DHT22;1544;48.834;9.194;2022-12-29T16:15:13;10.90;89.10
3067;DHT22;1544;48.834;9.194;2022-12-29T16:17:50;10.90;89.70
3067;DHT22;1544;48.834;9.194;2022-12-29T16:20:40;10.80;90.00
3067;DHT22;1544;48.834;9.194;2022-12-29T16:23:22;10.80;90.30
3067;DHT22;1544;48.834;9.194;2022-12-29T16:25:59;10.80;90.50
3067;DHT22;1544;48.834;9.194;2022-12-29T16:28:40;10.80;90.70
3067;DHT22;1544;48.834;9.194;2022-12-29T16:31:23;10.80;90.70
3067;DHT22;1544;48.834;9.194;2022-12-29T16:34:24;10.80;90.90
3067;DHT22;1544;48.834;9.194;2022-12-29T16:40:24;10.80;91.00
3067;DHT22;1544;48.834;9.194;2022-12-29T16:43:03;10.80;91.10
3067;DHT22;1544;48.834;9.194;2022-12-29T16:51:16;10.50;90.70
3067;DHT22;1544;48.834;9.194;2022-12-29T16:53:53;10.80;90.70
3067;DHT22;1544;48.834;9.194;2022-12-29T16:56:33;10.90;90.70
3067;DHT22;1544;48.834;9.194;2022-12-29T16:59:32;10.90;90.70
3067;DHT22;1544;48.834;9.194;2022-12-29T17:02:14;10.90;90.70
3067;DHT22;1544;48.834;9.194;2022-12-29T17:04:53;10.90;90.80
3067;DHT22;1544;48.834;9.194;2022-12-29T17:07:28;11.00;90.90
3067;DHT22;1544;48.834;9.194;2022-12-29T17:10:03;11.00;90.80
3067;DHT22;1544;48.834;9.194;2022-12-29T17:12:38;10.90;90.50
3067;DHT22;1544;48.834;9.194;2022-12-29T17:15:21;10.80;90.20
3067;DHT22;1544;48.834;9.194;2022-12-29T17:18:00;10.80;90.30
3067;DHT22;1544;48.834;9.194;2022-12-29T17:20:35;10.90;90.40
3067;DHT22;1544;48.834;9.194;2022-12-29T17:23:15;10.80;90.40
3067;DHT22;1544;48.834;9.194;2022-12-29T17:25:58;10.90;90.50
3067;DHT22;1544;48.834;9.194;2022-12-29T17:28:33;10.80;90.20
3067;DHT22;1544;48.834;9.194;2022-12-29T17:31:09;10.90;90.30
3067;DHT22;1544;48.834;9.194;2022-12-29T17:33:44;10.90;90.40
3067;DHT22;1544;48.834;9.194;2022-12-29T17:36:19;10.90;90.40
3067;DHT22;1544;48.834;9.194;2022-12-29T17:38:54;10.90;90.30
3067;DHT22;1544;48.834;9.194;2022-12-29T17:41:30;11.00;90.50
3067;DHT22;1544;48.834;9.194;2022-12-29T17:44:05;11.00;90.40
3067;DHT22;1544;48.834;9.194;2022-12-29T17:46:40;11.00;90.40
3067;DHT22;1544;48.834;9.194;2022-12-29T17:49:17;10.90;90.20
3067;DHT22;1544;48.834;9.194;2022-12-29T17:51:52;10.90;90.20
3067;DHT22;1544;48.834;9.194;2022-12-29T17:54:27;10.90;90.10
3067;DHT22;1544;48.834;9.194;2022-12-29T17:57:02;10.90;90.10
3067;DHT22;1544;48.834;9.194;2022-12-29T17:59:37;10.90;90.10
3067;DHT22;1544;48.834;9.194;2022-12-29T18:02:25;10.90;90.20
3067;DHT22;1544;48.834;9.194;2022-12-29T18:05:05;10.90;90.20
3067;DHT22;1544;48.834;9.194;2022-12-29T18:07:50;10.90;90.10
3067;DHT22;1544;48.834;9.194;2022-12-29T18:10:28;10.90;90.00
3067;DHT22;1544;48.834;9.194;2022-12-29T18:13:04;10.80;89.00
3067;DHT22;1544;48.834;9.194;2022-12-29T18:15:39;10.70;88.80
3067;DHT22;1544;48.834;9.194;2022-12-29T18:18:17;10.50;88.50
3067;DHT22;1544;48.834;9.194;2022-12-29T18:20:55;10.50;89.40
3067;DHT22;1544;48.834;9.194;2022-12-29T18:23:33;10.30;89.30
3067;DHT22;1544;48.834;9.194;2022-12-29T18:26:21;10.20;89.40
3067;DHT22;1544;48.834;9.194;2022-12-29T18:29:02;10.10;89.50
3067;DHT22;1544;48.834;9.194;2022-12-29T18:31:36;10.00;90.00
3067;DHT22;1544;48.834;9.194;2022-12-29T18:34:13;9.90;90.60
3067;DHT22;1544;48.834;9.194;2022-12-29T18:36:48;9.90;90.80
3067;DHT22;1544;48.834;9.194;2022-12-29T18:39:24;9.90;90.90
3067;DHT22;1544;48.834;9.194;2022-12-29T18:42:04;9.90;91.20
3067;DHT22;1544;48.834;9.194;2022-12-29T18:44:39;9.90;91.30
3067;DHT22;1544;48.834;9.194;2022-12-29T18:47:14;9.80;91.20
3067;DHT22;1544;48.834;9.194;2022-12-29T18:49:49;9.80;91.20
3067;DHT22;1544;48.834;9.194;2022-12-29T18:52:24;9.80;91.30
3067;DHT22;1544;48.834;9.194;2022-12-29T18:54:59;9.70;91.30
3067;DHT22;1544;48.834;9.194;2022-12-29T18:57:34;9.70;91.40
3067;DHT22;1544;48.834;9.194;2022-12-29T19:00:10;9.70;91.20
3067;DHT22;1544;48.834;9.194;2022-12-29T19:02:48;9.70;91.20
3067;DHT22;1544;48.834;9.194;2022-12-29T19:05:36;9.60;91.00
3067;DHT22;1544;48.834;9.194;2022-12-29T19:08:12;9.60;90.90
3067;DHT22;1544;48.834;9.194;2022-12-29T19:10:47;9.70;91.10
3067;DHT22;1544;48.834;9.194;2022-12-29T19:13:22;9.70;91.20
3067;DHT22;1544;48.834;9.194;2022-12-29T19:16:02;9.70;91.10
3067;DHT22;1544;48.834;9.194;2022-12-29T19:18:37;9.70;91.20
3067;DHT22;1544;48.834;9.194;2022-12-29T19:21:20;9.70;91.10
3067;DHT22;1544;48.834;9.194;2022-12-29T19:23:55;9.70;91.10
3067;DHT22;1544;48.834;9.194;2022-12-29T19:26:32;9.70;91.00
3067;DHT22;1544;48.834;9.194;2022-12-29T19:29:14;9.70;91.00
3067;DHT22;1544;48.834;9.194;2022-12-29T19:31:49;9.70;91.00
3067;DHT22;1544;48.834;9.194;2022-12-29T19:34:24;9.70;91.00
3067;DHT22;1544;48.834;9.194;2022-12-29T19:36:59;9.70;91.00
3067;DHT22;1544;48.834;9.194;2022-12-29T19:39:34;9.70;91.00